sensor_id;sensor_type;location;lat;lon;timestamp;P1;durP1;ratioP1;P2;durP2;ratioP2
27889;SDS011;15238;49.082;9.102;2023-12-28T00:01:24;7.95;;;4.88;;
27889;SDS011;15238;49.082;9.102;2023-12-28T00:03:24;9.50;;;5.55;;
27889;SDS011;15238;49.082;9.102;2023-12-28T00:05:28;13.30;;;5.43;;
27889;SDS011;15238;49.082;9.102;2023-12-28T00:07:28;10.55;;;5.13;;
27889;SDS011;15238;49.082;9.102;2023-12-28T00:09:29;9.63;;;5.35;;
27889;SDS011;15238;49.082;9.102;2023-12-28T00:11:29;9.65;;;5.80;;
27889;SDS011;15238;49.082;9.102;2023-12-28T00:13:30;12.20;;;5.50;;
27889;SDS011;15238;49.082;9.102;2023-12-28T00:15:30;8.02;;;4.82;;
27889;SDS011;15238;49.082;9.102;2023-12-28T00:17:31;8.95;;;4.85;;
27889;SDS011;15238;49.082;9.102;2023-12-28T00:19:31;9.05;;;5.32;;
27889;SDS011;15238;49.082;9.102;2023-12-28T00:21:32;8.82;;;5.30;;
27889;SDS011;15238;49.082;9.102;2023-12-28T00:23:32;6.97;;;4.40;;
27889;SDS011;15238;49.082;9.102;2023-12-28T00:25:33;9.55;;;4.80;;
27889;SDS011;15238;49.082;9.102;2023-12-28T00:27:33;10.40;;;4.80;;
27889;SDS011;15238;49.082;9.102;2023-12-28T00:29:35;11.27;;;5.85;;
27889;SDS011;15238;49.082;9.102;2023-12-28T00:31:38;9.68;;;5.05;;
27889;SDS011;15238;49.082;9.102;2023-12-28T00:33:39;7.88;;;5.10;;
27889;SDS011;15238;49.082;9.102;2023-12-28T00:35:39;6.10;;;4.60;;
27889;SDS011;15238;49.082;9.102;2023-12-28T00:37:40;8.73;;;5.15;;
27889;SDS011;15238;49.082;9.102;2023-12-28T00:39:40;9.43;;;5.07;;
27889;SDS011;15238;49.082;9.102;2023-12-28T00:41:41;8.88;;;5.65;;
27889;SDS011;15238;49.082;9.102;2023-12-28T00:43:41;11.00;;;5.20;;
27889;SDS011;15238;49.082;9.102;2023-12-28T00:45:42;8.77;;;5.30;;
27889;SDS011;15238;49.082;9.102;2023-12-28T00:47:42;10.85;;;5.30;;
27889;SDS011;15238;49.082;9.102;2023-12-28T00:49:44;9.57;;;5.25;;
27889;SDS011;15238;49.082;9.102;2023-12-28T00:51:44;13.02;;;5.45;;
27889;SDS011;15238;49.082;9.102;2023-12-28T00:53:44;9.70;;;5.68;;
27889;SDS011;15238;49.082;9.102;2023-12-28T00:55:45;9.75;;;5.75;;
27889;SDS011;15238;49.082;9.102;2023-12-28T00:57:45;8.45;;;4.88;;
27889;SDS011;15238;49.082;9.102;2023-12-28T00:59:46;9.98;;;4.63;;
27889;SDS011;15238;49.082;9.102;2023-12-28T01:01:46;8.60;;;4.97;;
27889;SDS011;15238;49.082;9.102;2023-12-28T01:03:47;9.20;;;5.18;;
27889;SDS011;15238;49.082;9.102;2023-12-28T01:05:47;8.73;;;5.05;;
27889;SDS011;15238;49.082;9.102;2023-12-28T01:07:50;10.02;;;5.45;;
27889;SDS011;15238;49.082;9.102;2023-12-28T01:09:51;9.93;;;5.18;;
27889;SDS011;15238;49.082;9.102;2023-12-28T01:11:51;10.00;;;5.30;;
27889;SDS011;15238;49.082;9.102;2023-12-28T01:13:53;9.23;;;5.97;;
27889;SDS011;15238;49.082;9.102;2023-12-28T01:15:54;9.70;;;6.28;;
27889;SDS011;15238;49.082;9.102;2023-12-28T01:17:54;12.85;;;6.40;;
27889;SDS011;15238;49.082;9.102;2023-12-28T01:19:55;9.77;;;6.55;;
27889;SDS011;15238;49.082;9.102;2023-12-28T01:21:55;9.93;;;5.70;;
27889;SDS011;15238;49.082;9.102;2023-12-28T01:23:56;11.65;;;6.75;;
27889;SDS011;15238;49.082;9.102;2023-12-28T01:25:56;10.98;;;5.85;;
27889;SDS011;15238;49.082;9.102;2023-12-28T01:27:57;9.05;;;5.28;;
27889;SDS011;15238;49.082;9.102;2023-12-28T01:29:57;10.88;;;6.30;;
27889;SDS011;15238;49.082;9.102;2023-12-28T01:31:58;12.70;;;6.53;;
27889;SDS011;15238;49.082;9.102;2023-12-28T01:33:58;9.68;;;5.80;;
27889;SDS011;15238;49.082;9.102;2023-12-28T01:35:59;9.77;;;5.18;;
27889;SDS011;15238;49.082;9.102;2023-12-28T01:37:59;10.07;;;5.22;;
27889;SDS011;15238;49.082;9.102;2023-12-28T01:40:01;10.90;;;5.95;;
27889;SDS011;15238;49.082;9.102;2023-12-28T01:42:02;10.02;;;5.57;;
27889;SDS011;15238;49.082;9.102;2023-12-28T01:44:04;10.00;;;5.45;;
27889;SDS011;15238;49.082;9.102;2023-12-28T01:46:17;10.77;;;5.65;;
27889;SDS011;15238;49.082;9.102;2023-12-28T01:48:19;10.13;;;5.05;;
27889;SDS011;15238;49.082;9.102;2023-12-28T01:50:20;11.93;;;5.38;;
27889;SDS011;15238;49.082;9.102;2023-12-28T01:52:23;9.82;;;5.57;;
27889;SDS011;15238;49.082;9.102;2023-12-28T01:54:24;9.07;;;5.55;;
27889;SDS011;15238;49.082;9.102;2023-12-28T01:56:24;8.88;;;5.60;;
27889;SDS011;15238;49.082;9.102;2023-12-28T01:58:26;7.90;;;5.00;;
27889;SDS011;15238;49.082;9.102;2023-12-28T02:00:32;9.13;;;4.93;;
27889;SDS011;15238;49.082;9.102;2023-12-28T02:02:36;9.70;;;5.07;;
27889;SDS011;15238;49.082;9.102;2023-12-28T02:04:37;9.82;;;4.57;;
27889;SDS011;15238;49.082;9.102;2023-12-28T02:06:38;7.80;;;4.50;;
27889;SDS011;15238;49.082;9.102;2023-12-28T02:08:39;9.27;;;4.03;;
27889;SDS011;15238;49.082;9.102;2023-12-28T02:10:39;7.30;;;4.18;;
27889;SDS011;15238;49.082;9.102;2023-12-28T02:12:40;8.18;;;3.78;;
27889;SDS011;15238;49.082;9.102;2023-12-28T02:14:41;8.85;;;4.63;;
27889;SDS011;15238;49.082;9.102;2023-12-28T02:16:44;7.82;;;4.85;;
27889;SDS011;15238;49.082;9.102;2023-12-28T02:18:50;12.40;;;5.20;;
27889;SDS011;15238;49.082;9.102;2023-12-28T02:20:51;11.30;;;5.07;;
27889;SDS011;15238;49.082;9.102;2023-12-28T02:22:53;11.88;;;6.30;;
27889;SDS011;15238;49.082;9.102;2023-12-28T02:27:05;9.85;;;5.75;;
27889;SDS011;15238;49.082;9.102;2023-12-28T02:29:05;10.88;;;6.55;;
27889;SDS011;15238;49.082;9.102;2023-12-28T02:31:06;12.15;;;5.90;;
27889;SDS011;15238;49.082;9.102;2023-12-28T02:33:33;13.98;;;6.32;;
27889;SDS011;15238;49.082;9.102;2023-12-28T02:37:46;9.85;;;5.10;;
27889;SDS011;15238;49.082;9.102;2023-12-28T02:39:50;8.73;;;5.10;;
27889;SDS011;15238;49.082;9.102;2023-12-28T02:41:53;9.98;;;5.60;;
27889;SDS011;15238;49.082;9.102;2023-12-28T02:43:55;19.35;;;6.50;;
27889;SDS011;15238;49.082;9.102;2023-12-28T02:45:55;11.20;;;6.15;;
27889;SDS011;15238;49.082;9.102;2023-12-28T02:47:56;9.77;;;5.47;;
27889;SDS011;15238;49.082;9.102;2023-12-28T02:49:56;7.75;;;4.53;;
27889;SDS011;15238;49.082;9.102;2023-12-28T02:51:59;9.40;;;4.72;;
27889;SDS011;15238;49.082;9.102;2023-12-28T02:53:59;5.93;;;4.15;;
27889;SDS011;15238;49.082;9.102;2023-12-28T02:56:00;8.40;;;3.92;;
27889;SDS011;15238;49.082;9.102;2023-12-28T02:58:00;8.07;;;4.18;;
27889;SDS011;15238;49.082;9.102;2023-12-28T03:00:01;11.27;;;4.22;;
27889;SDS011;15238;49.082;9.102;2023-12-28T03:02:02;6.18;;;4.05;;
27889;SDS011;15238;49.082;9.102;2023-12-28T03:04:03;5.70;;;3.33;;
27889;SDS011;15238;49.082;9.102;2023-12-28T03:06:03;6.30;;;3.80;;
27889;SDS011;15238;49.082;9.102;2023-12-28T03:08:05;5.18;;;3.60;;
27889;SDS011;15238;49.082;9.102;2023-12-28T03:10:06;5.50;;;3.40;;
27889;SDS011;15238;49.082;9.102;2023-12-28T03:12:07;8.52;;;3.95;;
27889;SDS011;15238;49.082;9.102;2023-12-28T03:14:07;4.03;;;2.95;;
27889;SDS011;15238;49.082;9.102;2023-12-28T03:16:08;6.35;;;3.20;;
27889;SDS011;15238;49.082;9.102;2023-12-28T03:18:08;5.38;;;3.28;;
27889;SDS011;15238;49.082;9.102;2023-12-28T03:20:09;5.90;;;3.28;;
27889;SDS011;15238;49.082;9.102;2023-12-28T03:22:10;7.32;;;3.25;;
27889;SDS011;15238;49.082;9.102;2023-12-28T03:24:10;7.03;;;3.33;;
27889;SDS011;15238;49.082;9.102;2023-12-28T03:26:11;6.50;;;2.72;;
27889;SDS011;15238;49.082;9.102;2023-12-28T03:28:11;7.43;;;3.15;;
27889;SDS011;15238;49.082;9.102;2023-12-28T03:30:12;5.63;;;3.10;;
27889;SDS011;15238;49.082;9.102;2023-12-28T03:32:13;5.20;;;2.90;;
27889;SDS011;15238;49.082;9.102;2023-12-28T03:34:14;4.70;;;2.70;;
27889;SDS011;15238;49.082;9.102;2023-12-28T03:36:18;4.85;;;2.90;;
27889;SDS011;15238;49.082;9.102;2023-12-28T03:38:19;4.40;;;3.00;;
27889;SDS011;15238;49.082;9.102;2023-12-28T03:40:20;4.75;;;2.80;;
27889;SDS011;15238;49.082;9.102;2023-12-28T03:42:20;6.20;;;3.00;;
27889;SDS011;15238;49.082;9.102;2023-12-28T03:44:22;7.30;;;3.38;;
27889;SDS011;15238;49.082;9.102;2023-12-28T03:46:23;5.40;;;3.33;;
27889;SDS011;15238;49.082;9.102;2023-12-28T03:48:23;7.95;;;4.22;;
27889;SDS011;15238;49.082;9.102;2023-12-28T03:50:24;7.28;;;3.38;;
27889;SDS011;15238;49.082;9.102;2023-12-28T03:52:27;5.22;;;3.17;;
27889;SDS011;15238;49.082;9.102;2023-12-28T03:54:30;4.43;;;2.20;;
27889;SDS011;15238;49.082;9.102;2023-12-28T03:56:30;3.45;;;2.53;;
27889;SDS011;15238;49.082;9.102;2023-12-28T03:58:34;4.10;;;2.40;;
27889;SDS011;15238;49.082;9.102;2023-12-28T04:00:35;4.25;;;2.50;;
27889;SDS011;15238;49.082;9.102;2023-12-28T04:02:36;3.65;;;2.15;;
27889;SDS011;15238;49.082;9.102;2023-12-28T04:04:36;7.00;;;2.17;;
27889;SDS011;15238;49.082;9.102;2023-12-28T04:06:37;3.58;;;2.30;;
27889;SDS011;15238;49.082;9.102;2023-12-28T04:08:38;3.75;;;2.35;;
27889;SDS011;15238;49.082;9.102;2023-12-28T04:10:39;3.90;;;2.00;;
27889;SDS011;15238;49.082;9.102;2023-12-28T04:12:40;3.65;;;2.00;;
27889;SDS011;15238;49.082;9.102;2023-12-28T04:14:40;3.25;;;1.92;;
27889;SDS011;15238;49.082;9.102;2023-12-28T04:16:44;3.13;;;1.70;;
27889;SDS011;15238;49.082;9.102;2023-12-28T04:18:45;4.28;;;2.00;;
27889;SDS011;15238;49.082;9.102;2023-12-28T04:20:45;2.88;;;1.88;;
27889;SDS011;15238;49.082;9.102;2023-12-28T04:22:46;2.53;;;1.45;;
27889;SDS011;15238;49.082;9.102;2023-12-28T04:24:46;2.95;;;1.75;;
27889;SDS011;15238;49.082;9.102;2023-12-28T04:26:47;4.07;;;1.70;;
27889;SDS011;15238;49.082;9.102;2023-12-28T04:28:47;4.00;;;1.98;;
27889;SDS011;15238;49.082;9.102;2023-12-28T04:30:48;3.42;;;2.13;;
27889;SDS011;15238;49.082;9.102;2023-12-28T04:32:48;3.05;;;2.03;;
27889;SDS011;15238;49.082;9.102;2023-12-28T04:34:49;3.17;;;1.77;;
27889;SDS011;15238;49.082;9.102;2023-12-28T04:36:49;2.92;;;1.65;;
27889;SDS011;15238;49.082;9.102;2023-12-28T04:38:52;5.55;;;2.13;;
27889;SDS011;15238;49.082;9.102;2023-12-28T04:40:53;2.65;;;1.60;;
27889;SDS011;15238;49.082;9.102;2023-12-28T04:42:54;4.03;;;1.75;;
27889;SDS011;15238;49.082;9.102;2023-12-28T04:44:54;4.18;;;1.75;;
27889;SDS011;15238;49.082;9.102;2023-12-28T04:46:55;4.18;;;1.90;;
27889;SDS011;15238;49.082;9.102;2023-12-28T04:48:55;3.08;;;1.85;;
27889;SDS011;15238;49.082;9.102;2023-12-28T04:50:56;2.88;;;1.80;;
27889;SDS011;15238;49.082;9.102;2023-12-28T04:52:56;4.13;;;1.67;;
27889;SDS011;15238;49.082;9.102;2023-12-28T04:54:57;2.00;;;1.38;;
27889;SDS011;15238;49.082;9.102;2023-12-28T04:56:58;2.10;;;1.25;;
27889;SDS011;15238;49.082;9.102;2023-12-28T04:58:58;3.53;;;1.25;;
27889;SDS011;15238;49.082;9.102;2023-12-28T05:01:00;3.90;;;1.20;;
27889;SDS011;15238;49.082;9.102;2023-12-28T05:03:02;1.50;;;1.00;;
27889;SDS011;15238;49.082;9.102;2023-12-28T05:05:03;3.70;;;1.35;;
27889;SDS011;15238;49.082;9.102;2023-12-28T05:07:04;3.90;;;1.38;;
27889;SDS011;15238;49.082;9.102;2023-12-28T05:09:05;2.00;;;1.20;;
27889;SDS011;15238;49.082;9.102;2023-12-28T05:11:06;3.13;;;1.42;;
27889;SDS011;15238;49.082;9.102;2023-12-28T05:13:06;3.35;;;1.38;;
27889;SDS011;15238;49.082;9.102;2023-12-28T05:15:07;2.05;;;1.20;;
27889;SDS011;15238;49.082;9.102;2023-12-28T05:17:07;2.60;;;1.10;;
27889;SDS011;15238;49.082;9.102;2023-12-28T05:19:08;1.85;;;1.10;;
27889;SDS011;15238;49.082;9.102;2023-12-28T05:21:09;3.58;;;1.00;;
27889;SDS011;15238;49.082;9.102;2023-12-28T05:23:09;1.58;;;0.90;;
27889;SDS011;15238;49.082;9.102;2023-12-28T05:25:10;1.52;;;1.13;;
27889;SDS011;15238;49.082;9.102;2023-12-28T05:27:10;2.05;;;1.27;;
27889;SDS011;15238;49.082;9.102;2023-12-28T05:29:11;2.70;;;0.70;;
27889;SDS011;15238;49.082;9.102;2023-12-28T05:31:11;4.43;;;0.93;;
27889;SDS011;15238;49.082;9.102;2023-12-28T05:33:13;1.52;;;0.90;;
27889;SDS011;15238;49.082;9.102;2023-12-28T05:35:13;1.40;;;0.70;;
27889;SDS011;15238;49.082;9.102;2023-12-28T05:37:14;1.40;;;0.57;;
27889;SDS011;15238;49.082;9.102;2023-12-28T05:39:14;2.25;;;0.82;;
27889;SDS011;15238;49.082;9.102;2023-12-28T05:41:15;1.38;;;0.57;;
27889;SDS011;15238;49.082;9.102;2023-12-28T05:43:15;1.92;;;0.60;;
27889;SDS011;15238;49.082;9.102;2023-12-28T05:45:16;1.08;;;0.60;;
27889;SDS011;15238;49.082;9.102;2023-12-28T05:47:16;1.17;;;0.85;;
27889;SDS011;15238;49.082;9.102;2023-12-28T05:49:17;2.08;;;0.60;;
27889;SDS011;15238;49.082;9.102;2023-12-28T05:51:17;4.07;;;0.60;;
27889;SDS011;15238;49.082;9.102;2023-12-28T05:53:18;1.75;;;1.05;;
27889;SDS011;15238;49.082;9.102;2023-12-28T05:55:19;1.52;;;0.93;;
27889;SDS011;15238;49.082;9.102;2023-12-28T05:57:19;1.60;;;1.00;;
27889;SDS011;15238;49.082;9.102;2023-12-28T05:59:20;1.95;;;0.88;;
27889;SDS011;15238;49.082;9.102;2023-12-28T06:01:22;1.55;;;0.80;;
27889;SDS011;15238;49.082;9.102;2023-12-28T06:03:22;1.75;;;0.68;;
27889;SDS011;15238;49.082;9.102;2023-12-28T06:05:27;1.98;;;0.95;;
27889;SDS011;15238;49.082;9.102;2023-12-28T06:07:28;2.63;;;0.85;;
27889;SDS011;15238;49.082;9.102;2023-12-28T06:09:28;1.30;;;0.75;;
27889;SDS011;15238;49.082;9.102;2023-12-28T06:11:29;1.63;;;0.65;;
27889;SDS011;15238;49.082;9.102;2023-12-28T06:13:30;1.77;;;0.90;;
27889;SDS011;15238;49.082;9.102;2023-12-28T06:15:30;1.20;;;0.63;;
27889;SDS011;15238;49.082;9.102;2023-12-28T06:17:31;1.10;;;0.63;;
27889;SDS011;15238;49.082;9.102;2023-12-28T06:19:31;2.45;;;0.90;;
27889;SDS011;15238;49.082;9.102;2023-12-28T06:21:32;2.67;;;0.88;;
27889;SDS011;15238;49.082;9.102;2023-12-28T06:23:34;2.90;;;0.90;;
27889;SDS011;15238;49.082;9.102;2023-12-28T06:25:34;2.90;;;1.48;;
27889;SDS011;15238;49.082;9.102;2023-12-28T06:27:35;1.23;;;0.80;;
27889;SDS011;15238;49.082;9.102;2023-12-28T06:29:35;1.35;;;0.60;;
27889;SDS011;15238;49.082;9.102;2023-12-28T06:31:36;2.53;;;0.80;;
27889;SDS011;15238;49.082;9.102;2023-12-28T06:33:37;1.80;;;0.60;;
27889;SDS011;15238;49.082;9.102;2023-12-28T06:35:38;1.75;;;0.70;;
27889;SDS011;15238;49.082;9.102;2023-12-28T06:37:39;1.25;;;0.90;;
27889;SDS011;15238;49.082;9.102;2023-12-28T06:39:39;1.25;;;0.80;;
27889;SDS011;15238;49.082;9.102;2023-12-28T06:41:40;1.30;;;0.60;;
27889;SDS011;15238;49.082;9.102;2023-12-28T06:43:40;1.92;;;0.77;;
27889;SDS011;15238;49.082;9.102;2023-12-28T06:45:41;2.80;;;0.88;;
27889;SDS011;15238;49.082;9.102;2023-12-28T06:47:41;3.03;;;0.80;;
27889;SDS011;15238;49.082;9.102;2023-12-28T06:49:42;1.20;;;0.75;;
27889;SDS011;15238;49.082;9.102;2023-12-28T06:51:42;2.25;;;0.70;;
27889;SDS011;15238;49.082;9.102;2023-12-28T06:53:46;1.25;;;0.63;;
27889;SDS011;15238;49.082;9.102;2023-12-28T06:55:46;2.28;;;0.88;;
27889;SDS011;15238;49.082;9.102;2023-12-28T06:57:47;2.78;;;0.90;;
27889;SDS011;15238;49.082;9.102;2023-12-28T06:59:47;3.60;;;1.05;;
27889;SDS011;15238;49.082;9.102;2023-12-28T07:01:48;1.52;;;0.80;;
27889;SDS011;15238;49.082;9.102;2023-12-28T07:03:49;2.22;;;1.00;;
27889;SDS011;15238;49.082;9.102;2023-12-28T07:05:49;1.63;;;0.82;;
27889;SDS011;15238;49.082;9.102;2023-12-28T07:07:51;1.42;;;0.90;;
27889;SDS011;15238;49.082;9.102;2023-12-28T07:09:51;1.80;;;0.90;;
27889;SDS011;15238;49.082;9.102;2023-12-28T07:11:52;2.30;;;1.10;;
27889;SDS011;15238;49.082;9.102;2023-12-28T07:13:52;3.15;;;1.10;;
27889;SDS011;15238;49.082;9.102;2023-12-28T07:15:53;1.55;;;0.90;;
27889;SDS011;15238;49.082;9.102;2023-12-28T07:17:53;2.95;;;1.10;;
27889;SDS011;15238;49.082;9.102;2023-12-28T07:19:54;2.38;;;1.10;;
27889;SDS011;15238;49.082;9.102;2023-12-28T07:21:54;1.98;;;0.90;;
27889;SDS011;15238;49.082;9.102;2023-12-28T07:23:55;6.57;;;1.55;;
27889;SDS011;15238;49.082;9.102;2023-12-28T07:25:55;2.90;;;1.60;;
27889;SDS011;15238;49.082;9.102;2023-12-28T07:27:56;2.25;;;1.50;;
27889;SDS011;15238;49.082;9.102;2023-12-28T07:29:56;6.05;;;1.70;;
27889;SDS011;15238;49.082;9.102;2023-12-28T07:31:57;2.65;;;1.10;;
27889;SDS011;15238;49.082;9.102;2023-12-28T07:33:57;3.03;;;1.35;;
27889;SDS011;15238;49.082;9.102;2023-12-28T07:35:58;2.20;;;1.10;;
27889;SDS011;15238;49.082;9.102;2023-12-28T07:38:02;4.30;;;1.23;;
27889;SDS011;15238;49.082;9.102;2023-12-28T07:40:03;1.90;;;0.98;;
27889;SDS011;15238;49.082;9.102;2023-12-28T07:42:04;1.95;;;1.15;;
27889;SDS011;15238;49.082;9.102;2023-12-28T07:44:05;2.42;;;1.23;;
27889;SDS011;15238;49.082;9.102;2023-12-28T07:46:05;1.95;;;1.38;;
27889;SDS011;15238;49.082;9.102;2023-12-28T07:48:06;2.83;;;1.40;;
27889;SDS011;15238;49.082;9.102;2023-12-28T07:50:06;1.17;;;0.93;;
27889;SDS011;15238;49.082;9.102;2023-12-28T07:52:07;1.40;;;1.05;;
27889;SDS011;15238;49.082;9.102;2023-12-28T07:54:08;3.53;;;1.70;;
27889;SDS011;15238;49.082;9.102;2023-12-28T07:56:08;1.83;;;1.33;;
27889;SDS011;15238;49.082;9.102;2023-12-28T07:58:09;3.47;;;0.90;;
27889;SDS011;15238;49.082;9.102;2023-12-28T08:00:09;2.97;;;1.35;;
27889;SDS011;15238;49.082;9.102;2023-12-28T08:02:10;5.75;;;1.13;;
27889;SDS011;15238;49.082;9.102;2023-12-28T08:04:11;2.25;;;0.98;;
27889;SDS011;15238;49.082;9.102;2023-12-28T08:06:11;3.10;;;1.10;;
27889;SDS011;15238;49.082;9.102;2023-12-28T08:08:12;4.55;;;1.27;;
27889;SDS011;15238;49.082;9.102;2023-12-28T08:10:13;1.60;;;1.00;;
27889;SDS011;15238;49.082;9.102;2023-12-28T08:12:13;6.35;;;1.50;;
27889;SDS011;15238;49.082;9.102;2023-12-28T08:14:14;2.35;;;1.05;;
27889;SDS011;15238;49.082;9.102;2023-12-28T08:16:14;5.13;;;1.83;;
27889;SDS011;15238;49.082;9.102;2023-12-28T08:18:15;1.77;;;1.15;;
27889;SDS011;15238;49.082;9.102;2023-12-28T08:20:16;2.88;;;1.05;;
27889;SDS011;15238;49.082;9.102;2023-12-28T08:22:16;1.85;;;1.38;;
27889;SDS011;15238;49.082;9.102;2023-12-28T08:24:17;4.57;;;1.65;;
27889;SDS011;15238;49.082;9.102;2023-12-28T08:26:17;2.22;;;1.30;;
27889;SDS011;15238;49.082;9.102;2023-12-28T08:28:18;2.88;;;2.00;;
27889;SDS011;15238;49.082;9.102;2023-12-28T08:30:18;2.85;;;1.45;;
27889;SDS011;15238;49.082;9.102;2023-12-28T08:32:19;1.90;;;1.27;;
27889;SDS011;15238;49.082;9.102;2023-12-28T08:34:19;2.45;;;1.45;;
27889;SDS011;15238;49.082;9.102;2023-12-28T08:36:20;3.75;;;1.20;;
27889;SDS011;15238;49.082;9.102;2023-12-28T08:38:20;2.88;;;1.35;;
27889;SDS011;15238;49.082;9.102;2023-12-28T08:40:21;2.95;;;1.30;;
27889;SDS011;15238;49.082;9.102;2023-12-28T08:42:21;3.78;;;1.55;;
27889;SDS011;15238;49.082;9.102;2023-12-28T08:44:24;6.38;;;1.80;;
27889;SDS011;15238;49.082;9.102;2023-12-28T08:46:25;2.00;;;1.20;;
27889;SDS011;15238;49.082;9.102;2023-12-28T08:48:25;3.33;;;1.30;;
27889;SDS011;15238;49.082;9.102;2023-12-28T08:50:26;3.15;;;2.10;;
27889;SDS011;15238;49.082;9.102;2023-12-28T08:52:26;2.58;;;1.40;;
27889;SDS011;15238;49.082;9.102;2023-12-28T08:54:27;3.63;;;1.35;;
27889;SDS011;15238;49.082;9.102;2023-12-28T08:56:27;3.42;;;1.25;;
27889;SDS011;15238;49.082;9.102;2023-12-28T08:58:28;3.70;;;1.30;;
27889;SDS011;15238;49.082;9.102;2023-12-28T09:00:28;5.55;;;2.20;;
27889;SDS011;15238;49.082;9.102;2023-12-28T09:02:29;2.67;;;1.40;;
27889;SDS011;15238;49.082;9.102;2023-12-28T09:04:29;2.13;;;1.40;;
27889;SDS011;15238;49.082;9.102;2023-12-28T09:06:30;4.50;;;1.45;;
27889;SDS011;15238;49.082;9.102;2023-12-28T09:08:31;3.13;;;1.20;;
27889;SDS011;15238;49.082;9.102;2023-12-28T09:10:31;2.95;;;1.45;;
27889;SDS011;15238;49.082;9.102;2023-12-28T09:12:32;3.25;;;1.55;;
27889;SDS011;15238;49.082;9.102;2023-12-28T09:14:33;2.92;;;1.33;;
27889;SDS011;15238;49.082;9.102;2023-12-28T09:16:33;6.10;;;1.58;;
27889;SDS011;15238;49.082;9.102;2023-12-28T09:18:35;2.75;;;1.40;;
27889;SDS011;15238;49.082;9.102;2023-12-28T09:20:38;2.10;;;1.50;;
27889;SDS011;15238;49.082;9.102;2023-12-28T09:22:40;2.22;;;1.42;;
27889;SDS011;15238;49.082;9.102;2023-12-28T09:24:40;1.85;;;1.35;;
27889;SDS011;15238;49.082;9.102;2023-12-28T09:26:41;2.42;;;1.70;;
27889;SDS011;15238;49.082;9.102;2023-12-28T09:28:43;3.22;;;1.52;;
27889;SDS011;15238;49.082;9.102;2023-12-28T09:30:43;3.17;;;1.58;;
27889;SDS011;15238;49.082;9.102;2023-12-28T09:32:44;1.10;;;0.98;;
27889;SDS011;15238;49.082;9.102;2023-12-28T09:34:44;1.95;;;1.20;;
27889;SDS011;15238;49.082;9.102;2023-12-28T09:36:45;4.07;;;1.48;;
27889;SDS011;15238;49.082;9.102;2023-12-28T09:38:45;2.65;;;1.30;;
27889;SDS011;15238;49.082;9.102;2023-12-28T09:40:46;2.22;;;1.30;;
27889;SDS011;15238;49.082;9.102;2023-12-28T09:42:53;5.93;;;1.80;;
27889;SDS011;15238;49.082;9.102;2023-12-28T09:45:04;1.63;;;1.38;;
27889;SDS011;15238;49.082;9.102;2023-12-28T09:47:06;2.38;;;1.40;;
27889;SDS011;15238;49.082;9.102;2023-12-28T09:49:06;4.55;;;1.55;;
27889;SDS011;15238;49.082;9.102;2023-12-28T09:51:07;5.35;;;1.52;;
27889;SDS011;15238;49.082;9.102;2023-12-28T09:53:11;5.95;;;1.30;;
27889;SDS011;15238;49.082;9.102;2023-12-28T09:55:12;1.83;;;1.20;;
27889;SDS011;15238;49.082;9.102;2023-12-28T09:57:12;4.07;;;1.52;;
27889;SDS011;15238;49.082;9.102;2023-12-28T09:59:13;2.15;;;1.50;;
27889;SDS011;15238;49.082;9.102;2023-12-28T10:01:15;3.13;;;1.50;;
27889;SDS011;15238;49.082;9.102;2023-12-28T10:03:20;4.97;;;2.60;;
27889;SDS011;15238;49.082;9.102;2023-12-28T10:05:21;4.28;;;2.00;;
27889;SDS011;15238;49.082;9.102;2023-12-28T10:07:21;4.00;;;2.58;;
27889;SDS011;15238;49.082;9.102;2023-12-28T10:09:22;4.63;;;1.98;;
27889;SDS011;15238;49.082;9.102;2023-12-28T10:11:22;5.15;;;2.38;;
27889;SDS011;15238;49.082;9.102;2023-12-28T10:13:25;4.90;;;1.55;;
27889;SDS011;15238;49.082;9.102;2023-12-28T10:15:26;4.53;;;1.50;;
27889;SDS011;15238;49.082;9.102;2023-12-28T10:17:26;5.03;;;1.30;;
27889;SDS011;15238;49.082;9.102;2023-12-28T10:19:26;7.70;;;4.95;;
27889;SDS011;15238;49.082;9.102;2023-12-28T10:21:27;3.60;;;2.03;;
27889;SDS011;15238;49.082;9.102;2023-12-28T10:23:28;3.05;;;1.40;;
27889;SDS011;15238;49.082;9.102;2023-12-28T10:25:28;6.35;;;1.40;;
27889;SDS011;15238;49.082;9.102;2023-12-28T10:27:31;3.67;;;1.35;;
27889;SDS011;15238;49.082;9.102;2023-12-28T10:29:33;3.38;;;1.65;;
27889;SDS011;15238;49.082;9.102;2023-12-28T10:31:34;2.50;;;1.50;;
27889;SDS011;15238;49.082;9.102;2023-12-28T10:33:35;4.57;;;1.52;;
27889;SDS011;15238;49.082;9.102;2023-12-28T10:35:39;2.10;;;1.23;;
27889;SDS011;15238;49.082;9.102;2023-12-28T10:37:40;2.30;;;1.10;;
27889;SDS011;15238;49.082;9.102;2023-12-28T10:39:45;2.80;;;1.58;;
27889;SDS011;15238;49.082;9.102;2023-12-28T10:41:49;3.35;;;1.60;;
27889;SDS011;15238;49.082;9.102;2023-12-28T10:45:57;4.68;;;1.58;;
27889;SDS011;15238;49.082;9.102;2023-12-28T10:48:04;3.70;;;1.52;;
27889;SDS011;15238;49.082;9.102;2023-12-28T10:50:07;4.53;;;1.52;;
27889;SDS011;15238;49.082;9.102;2023-12-28T10:52:10;4.85;;;2.13;;
27889;SDS011;15238;49.082;9.102;2023-12-28T10:54:20;4.40;;;2.30;;
27889;SDS011;15238;49.082;9.102;2023-12-28T10:58:53;4.07;;;2.50;;
27889;SDS011;15238;49.082;9.102;2023-12-28T11:01:09;3.30;;;1.80;;
27889;SDS011;15238;49.082;9.102;2023-12-28T11:03:17;3.17;;;1.27;;
27889;SDS011;15238;49.082;9.102;2023-12-28T11:05:21;2.65;;;1.15;;
27889;SDS011;15238;49.082;9.102;2023-12-28T11:07:23;3.08;;;1.25;;
27889;SDS011;15238;49.082;9.102;2023-12-28T11:09:24;4.00;;;1.63;;
27889;SDS011;15238;49.082;9.102;2023-12-28T11:11:30;2.05;;;1.05;;
27889;SDS011;15238;49.082;9.102;2023-12-28T11:13:32;2.35;;;0.98;;
27889;SDS011;15238;49.082;9.102;2023-12-28T11:15:35;2.92;;;1.00;;
27889;SDS011;15238;49.082;9.102;2023-12-28T11:17:38;2.15;;;1.00;;
27889;SDS011;15238;49.082;9.102;2023-12-28T11:19:40;2.15;;;1.02;;
27889;SDS011;15238;49.082;9.102;2023-12-28T11:21:41;3.28;;;1.20;;
27889;SDS011;15238;49.082;9.102;2023-12-28T11:23:43;5.88;;;1.52;;
27889;SDS011;15238;49.082;9.102;2023-12-28T11:25:44;1.95;;;1.40;;
27889;SDS011;15238;49.082;9.102;2023-12-28T11:27:46;1.67;;;1.10;;
27889;SDS011;15238;49.082;9.102;2023-12-28T11:29:49;1.58;;;0.93;;
27889;SDS011;15238;49.082;9.102;2023-12-28T11:31:52;2.35;;;1.25;;
27889;SDS011;15238;49.082;9.102;2023-12-28T11:33:54;2.92;;;1.20;;
27889;SDS011;15238;49.082;9.102;2023-12-28T11:35:55;1.58;;;1.10;;
27889;SDS011;15238;49.082;9.102;2023-12-28T11:37:55;2.47;;;1.10;;
27889;SDS011;15238;49.082;9.102;2023-12-28T11:39:56;3.05;;;1.40;;
27889;SDS011;15238;49.082;9.102;2023-12-28T11:42:05;1.88;;;1.42;;
27889;SDS011;15238;49.082;9.102;2023-12-28T11:44:07;2.92;;;1.38;;
27889;SDS011;15238;49.082;9.102;2023-12-28T11:46:07;5.03;;;1.60;;
27889;SDS011;15238;49.082;9.102;2023-12-28T11:48:08;2.63;;;1.35;;
27889;SDS011;15238;49.082;9.102;2023-12-28T11:50:08;3.17;;;1.05;;
27889;SDS011;15238;49.082;9.102;2023-12-28T11:52:09;2.20;;;0.90;;
27889;SDS011;15238;49.082;9.102;2023-12-28T11:54:11;2.72;;;0.65;;
27889;SDS011;15238;49.082;9.102;2023-12-28T11:56:12;2.92;;;1.10;;
27889;SDS011;15238;49.082;9.102;2023-12-28T11:58:16;1.90;;;0.80;;
27889;SDS011;15238;49.082;9.102;2023-12-28T12:00:18;1.83;;;0.80;;
27889;SDS011;15238;49.082;9.102;2023-12-28T12:02:20;2.65;;;0.70;;
27889;SDS011;15238;49.082;9.102;2023-12-28T12:04:21;2.47;;;0.52;;
27889;SDS011;15238;49.082;9.102;2023-12-28T12:06:22;2.45;;;0.50;;
27889;SDS011;15238;49.082;9.102;2023-12-28T12:08:24;1.92;;;0.52;;
27889;SDS011;15238;49.082;9.102;2023-12-28T12:10:24;3.20;;;0.60;;
27889;SDS011;15238;49.082;9.102;2023-12-28T12:12:25;2.05;;;0.40;;
27889;SDS011;15238;49.082;9.102;2023-12-28T12:14:26;1.15;;;0.65;;
27889;SDS011;15238;49.082;9.102;2023-12-28T12:16:28;2.05;;;0.75;;
27889;SDS011;15238;49.082;9.102;2023-12-28T12:18:29;1.08;;;0.60;;